createdAt,value
2022-11-02T00:02:26.404Z,60.39
2022-11-02T00:04:53.917Z,59.24
2022-11-02T00:07:21.407Z,59.50
2022-11-02T00:09:48.864Z,59.99
2022-11-02T00:12:16.288Z,59.82
2022-11-02T00:14:45.071Z,59.65
2022-11-02T00:17:12.639Z,59.72
2022-11-02T00:19:40.194Z,60.14
2022-11-02T00:22:07.828Z,59.77
2022-11-02T00:24:35.321Z,59.60
2022-11-02T00:27:03.133Z,59.06
2022-11-02T00:29:33.756Z,59.75
2022-11-02T00:32:02.982Z,59.59
2022-11-02T00:34:30.463Z,59.74
2022-11-02T00:36:57.936Z,59.46
2022-11-02T00:39:25.327Z,60.98
2022-11-02T00:41:52.786Z,61.46
2022-11-02T00:44:21.757Z,62.86
2022-11-02T00:46:49.195Z,63.14
2022-11-02T00:49:18.019Z,63.67
2022-11-02T00:51:46.249Z,64.04
2022-11-02T00:54:13.707Z,64.39
2022-11-02T00:56:41.221Z,63.84
2022-11-02T00:59:08.681Z,64.03
2022-11-02T01:01:36.174Z,63.40
2022-11-02T01:04:03.850Z,63.97
2022-11-02T01:06:32.650Z,63.75
2022-11-02T01:09:00.093Z,63.09
2022-11-02T01:11:27.561Z,63.59
2022-11-02T01:13:55.263Z,63.80
2022-11-02T01:16:22.713Z,63.27
2022-11-02T01:18:54.175Z,63.12
2022-11-02T01:21:22.675Z,62.95
2022-11-02T01:23:51.498Z,62.89
2022-11-02T01:26:19.792Z,62.36
2022-11-02T01:28:47.244Z,63.66
2022-11-02T01:31:15.003Z,62.98
2022-11-02T01:33:45.897Z,63.01
2022-11-02T01:36:14.774Z,62.00
2022-11-02T01:38:42.301Z,61.78
2022-11-02T01:41:12.426Z,62.04
2022-11-02T01:43:43.296Z,62.32
2022-11-02T01:46:17.441Z,62.40
2022-11-02T01:48:48.856Z,61.83
2022-11-02T01:51:21.472Z,61.85
2022-11-02T01:53:52.432Z,62.29
2022-11-02T01:56:24.709Z,62.05
2022-11-02T01:58:58.656Z,61.88
2022-11-02T02:01:26.884Z,61.83
2022-11-02T02:03:55.204Z,61.71
2022-11-02T02:06:22.714Z,61.40
2022-11-02T02:08:52.140Z,61.85
2022-11-02T02:11:29.160Z,61.35
2022-11-02T02:13:59.970Z,61.45
2022-11-02T02:16:43.001Z,61.30
2022-11-02T02:19:20.367Z,61.31
2022-11-02T02:21:59.869Z,61.85
2022-11-02T02:24:45.625Z,61.77
2022-11-02T02:27:20.263Z,60.76
2022-11-02T02:29:58.991Z,61.20
2022-11-02T02:32:33.084Z,60.86
2022-11-02T02:35:10.382Z,61.50
2022-11-02T02:37:42.910Z,60.68
2022-11-02T02:40:15.141Z,60.88
2022-11-02T02:42:47.768Z,61.22
2022-11-02T02:45:21.040Z,61.13
2022-11-02T02:47:53.525Z,61.22
2022-11-02T02:50:28.391Z,61.11
2022-11-02T02:52:57.917Z,61.60
2022-11-02T02:55:31.298Z,61.21
2022-11-02T02:58:01.656Z,61.22
2022-11-02T03:00:34.438Z,61.31
2022-11-02T03:03:04.133Z,61.38
2022-11-02T03:05:34.194Z,61.42
2022-11-02T03:08:06.693Z,60.76
2022-11-02T03:10:40.495Z,61.21
2022-11-02T03:13:34.223Z,61.62
2022-11-02T03:16:08.358Z,61.56
2022-11-02T03:18:46.552Z,61.90
2022-11-02T03:21:23.339Z,61.83
2022-11-02T03:23:56.494Z,62.18
2022-11-02T03:26:31.091Z,62.21
2022-11-02T03:29:03.705Z,62.20
2022-11-02T03:31:39.068Z,61.74
2022-11-02T03:34:16.911Z,61.36
2022-11-02T03:36:50.041Z,61.25
2022-11-02T03:39:20.925Z,61.02
2022-11-02T03:41:52.625Z,61.67
2022-11-02T03:44:23.815Z,61.21
2022-11-02T03:46:58.672Z,61.35
2022-11-02T03:49:28.024Z,61.09
2022-11-02T03:52:00.062Z,60.69
2022-11-02T03:54:37.700Z,61.10
2022-11-02T03:57:08.175Z,61.19
2022-11-02T03:59:35.714Z,60.54
2022-11-02T04:04:49.617Z,60.71
2022-11-02T04:07:20.779Z,61.42
2022-11-02T04:09:48.245Z,61.43
2022-11-02T04:12:33.521Z,61.31
2022-11-02T04:15:01.336Z,61.26
2022-11-02T04:17:46.557Z,61.00
2022-11-02T04:20:15.581Z,61.62
2022-11-02T04:23:00.593Z,61.65
2022-11-02T04:25:28.021Z,61.75
2022-11-02T04:27:55.476Z,61.22
2022-11-02T04:30:24.561Z,61.98
2022-11-02T04:33:09.866Z,62.24
2022-11-02T04:35:38.850Z,61.94
2022-11-02T04:38:20.239Z,61.57
2022-11-02T04:40:47.945Z,60.90
2022-11-02T04:43:15.390Z,61.07
2022-11-02T04:45:42.817Z,61.25
2022-11-02T04:48:10.945Z,60.79
2022-11-02T04:50:39.736Z,60.73
2022-11-02T04:53:08.063Z,60.83
2022-11-02T04:55:35.862Z,61.17
2022-11-02T04:58:03.674Z,61.90
2022-11-02T05:00:31.449Z,61.26
2022-11-02T05:02:59.023Z,60.27
2022-11-02T05:05:26.475Z,60.49
2022-11-02T05:07:55.275Z,61.20
2022-11-02T05:10:22.759Z,60.84
2022-11-02T05:12:57.124Z,61.73
2022-11-02T05:15:24.587Z,60.99
2022-11-02T05:17:52.045Z,60.79
2022-11-02T05:20:19.700Z,61.19
2022-11-02T05:22:47.146Z,61.68
2022-11-02T05:25:16.779Z,60.59
2022-11-02T05:27:44.217Z,61.38
2022-11-02T05:30:12.884Z,61.16
2022-11-02T05:32:40.287Z,60.73
2022-11-02T05:35:08.651Z,60.84
2022-11-02T05:37:36.077Z,61.86
2022-11-02T05:40:03.548Z,61.95
2022-11-02T05:42:32.325Z,61.42
2022-11-02T05:44:59.759Z,61.71
2022-11-02T05:47:27.243Z,61.38
2022-11-02T05:49:54.760Z,61.36
2022-11-02T05:52:22.831Z,61.48
2022-11-02T05:54:50.259Z,62.48
2022-11-02T05:57:18.994Z,61.39
2022-11-02T05:59:49.448Z,60.60
2022-11-02T06:02:17.135Z,61.81
2022-11-02T06:04:44.575Z,61.58
2022-11-02T06:07:11.984Z,61.66
2022-11-02T06:09:39.397Z,61.17
2022-11-02T06:12:07.691Z,61.46
2022-11-02T06:14:35.102Z,61.00
2022-11-02T06:17:03.882Z,60.60
2022-11-02T06:19:31.331Z,60.54
2022-11-02T06:21:58.863Z,60.53
2022-11-02T06:24:26.309Z,60.92
2022-11-02T06:26:53.767Z,60.22
2022-11-02T06:29:21.185Z,60.78
2022-11-02T06:31:48.611Z,61.09
2022-11-02T06:34:17.325Z,60.36
2022-11-02T06:36:44.805Z,60.95
2022-11-02T06:39:12.320Z,60.72
2022-11-02T06:41:39.757Z,61.55
2022-11-02T06:44:07.360Z,61.42
2022-11-02T06:46:34.792Z,61.70
2022-11-02T06:49:02.491Z,61.12
2022-11-02T06:51:31.252Z,60.81
2022-11-02T06:53:58.763Z,59.93
2022-11-02T06:56:26.188Z,59.96
2022-11-02T06:58:53.657Z,61.07
2022-11-02T07:01:21.278Z,61.09
2022-11-02T07:03:48.862Z,61.07
2022-11-02T07:06:16.301Z,61.36
2022-11-02T07:08:45.067Z,60.81
2022-11-02T07:11:16.617Z,61.67
2022-11-02T07:13:44.793Z,60.38
2022-11-02T07:16:12.391Z,61.02
2022-11-02T07:18:39.856Z,59.96
2022-11-02T07:21:07.707Z,60.79
2022-11-02T07:23:35.183Z,61.54
2022-11-02T07:26:04.850Z,60.51
2022-11-02T07:28:32.294Z,60.52
2022-11-02T07:30:59.688Z,61.11
2022-11-02T07:33:27.117Z,59.90
2022-11-02T07:35:54.534Z,60.21
2022-11-02T07:38:21.977Z,60.27
2022-11-02T07:40:50.662Z,60.38
2022-11-02T07:43:19.436Z,59.95
2022-11-02T07:45:46.869Z,59.61
2022-11-02T07:48:14.304Z,59.41
2022-11-02T07:50:41.737Z,58.66
2022-11-02T07:53:10.141Z,58.13
2022-11-02T07:55:37.578Z,58.58
2022-11-02T07:58:07.864Z,59.54
2022-11-02T08:00:38.245Z,59.64
2022-11-02T08:03:07.638Z,59.88
2022-11-02T08:05:38.422Z,59.46
2022-11-02T08:08:08.143Z,59.05
2022-11-02T08:10:40.222Z,58.43
2022-11-02T08:13:08.537Z,59.22
2022-11-02T08:15:37.517Z,59.46
2022-11-02T08:18:06.768Z,58.56
2022-11-02T08:20:36.283Z,58.13
2022-11-02T08:23:05.188Z,57.96
2022-11-02T08:25:33.314Z,58.79
2022-11-02T08:28:02.398Z,59.09
2022-11-02T08:30:32.064Z,59.00
2022-11-02T08:33:05.015Z,58.94
2022-11-02T08:35:32.954Z,58.91
2022-11-02T08:38:00.792Z,58.35
2022-11-02T08:40:28.731Z,59.11
2022-11-02T08:42:59.725Z,57.54
2022-11-02T08:45:27.758Z,58.26
2022-11-02T08:47:55.424Z,58.26
2022-11-02T08:50:25.427Z,58.45
2022-11-02T08:52:52.969Z,58.21
2022-11-02T08:55:20.717Z,57.38
2022-11-02T08:57:49.220Z,57.56
2022-11-02T09:00:17.914Z,57.36
2022-11-02T09:02:45.518Z,56.89
2022-11-02T09:05:13.044Z,56.78
2022-11-02T09:07:41.806Z,56.94
2022-11-02T09:10:10.221Z,55.67
2022-11-02T09:12:37.668Z,56.04
2022-11-02T09:15:05.586Z,55.54
2022-11-02T09:17:33.061Z,55.70
2022-11-02T09:20:00.499Z,55.59
2022-11-02T09:22:27.917Z,55.77
2022-11-02T09:24:56.667Z,55.44
2022-11-02T09:27:24.113Z,55.05
2022-11-02T09:29:51.577Z,54.54
2022-11-02T09:32:19.029Z,55.03
2022-11-02T09:34:47.315Z,55.17
2022-11-02T09:37:14.808Z,55.47
2022-11-02T09:39:42.291Z,55.26
2022-11-02T09:42:19.691Z,55.17
2022-11-02T09:44:51.890Z,55.20
2022-11-02T09:50:14.707Z,54.49
2022-11-02T09:52:46.423Z,54.61
2022-11-02T09:55:18.875Z,54.82
2022-11-02T09:57:53.456Z,53.92
2022-11-02T10:00:21.124Z,53.98
2022-11-02T10:02:58.247Z,55.26
2022-11-02T10:05:37.518Z,55.33
2022-11-02T10:08:25.707Z,55.10
2022-11-02T10:11:08.492Z,54.17
2022-11-02T10:13:42.274Z,54.50
2022-11-02T10:16:14.768Z,53.64
2022-11-02T10:18:43.464Z,53.97
2022-11-02T10:21:14.736Z,52.85
2022-11-02T10:23:45.738Z,52.22
2022-11-02T10:26:19.625Z,52.50
2022-11-02T10:28:51.480Z,52.03
2022-11-02T10:31:28.189Z,51.79
2022-11-02T10:33:58.348Z,51.27
2022-11-02T10:36:39.108Z,50.88
2022-11-02T10:39:15.355Z,50.66
2022-11-02T10:41:55.109Z,50.39
2022-11-02T10:44:50.313Z,50.54
2022-11-02T10:47:19.664Z,50.09
2022-11-02T10:50:25.035Z,50.24
2022-11-02T10:52:52.478Z,49.05
2022-11-02T10:55:27.761Z,48.91
2022-11-02T10:57:57.064Z,48.29
2022-11-02T11:00:31.818Z,49.01
2022-11-02T11:03:11.214Z,48.48
2022-11-02T11:05:57.558Z,48.09
2022-11-02T11:08:30.395Z,48.21
2022-11-02T11:11:11.174Z,47.08
2022-11-02T11:16:42.406Z,46.56
2022-11-02T11:19:41.611Z,46.73
2022-11-02T11:22:25.954Z,47.07
2022-11-02T11:24:53.464Z,46.71
2022-11-02T11:27:21.808Z,46.62
2022-11-02T11:29:56.835Z,47.17
2022-11-02T11:32:30.554Z,46.37
2022-11-02T11:35:01.756Z,46.26
2022-11-02T11:37:29.385Z,46.08
2022-11-02T11:40:00.206Z,46.20
2022-11-02T11:42:32.007Z,46.57
2022-11-02T11:45:03.807Z,46.66
2022-11-02T11:47:37.197Z,46.16
2022-11-02T11:50:10.429Z,45.66
2022-11-02T11:52:43.374Z,45.58
2022-11-02T11:55:22.775Z,44.54
2022-11-02T11:58:06.817Z,44.90
2022-11-02T12:00:34.770Z,44.80
2022-11-02T12:03:10.810Z,44.73
2022-11-02T12:05:49.615Z,43.75
2022-11-02T12:08:29.958Z,43.16
2022-11-02T12:11:06.049Z,43.54
2022-11-02T12:13:56.540Z,43.10
2022-11-02T12:16:40.111Z,43.45
2022-11-02T12:19:22.163Z,43.96
2022-11-02T12:22:02.786Z,43.64
2022-11-02T12:24:57.661Z,44.40
2022-11-02T12:27:35.814Z,44.41
2022-11-02T12:30:11.700Z,43.98
2022-11-02T12:32:52.934Z,44.35
2022-11-02T12:35:35.855Z,43.98
2022-11-02T12:38:22.419Z,43.65
2022-11-02T12:41:00.687Z,42.93
2022-11-02T12:43:39.784Z,43.72
2022-11-02T12:46:17.651Z,42.91
2022-11-02T12:49:07.351Z,44.52
2022-11-02T12:51:46.802Z,44.84
2022-11-02T12:54:21.163Z,43.82
2022-11-02T12:56:51.671Z,44.32
2022-11-02T12:59:23.585Z,45.41
2022-11-02T13:01:55.805Z,44.74
2022-11-02T13:04:29.510Z,44.42
2022-11-02T13:07:05.110Z,44.58
2022-11-02T13:09:37.715Z,44.27
2022-11-02T13:12:10.283Z,45.00
2022-11-02T13:14:42.187Z,44.82
2022-11-02T13:17:15.811Z,44.07
2022-11-02T13:19:47.002Z,44.48
2022-11-02T13:22:19.518Z,44.20
2022-11-02T13:24:52.068Z,44.45
2022-11-02T13:27:36.365Z,43.35
2022-11-02T13:30:10.343Z,43.86
2022-11-02T13:32:43.499Z,44.08
2022-11-02T13:35:18.289Z,43.86
2022-11-02T13:37:51.366Z,44.83
2022-11-02T13:40:24.124Z,44.98
2022-11-02T13:43:39.024Z,43.90
2022-11-02T13:46:27.916Z,44.13
2022-11-02T13:49:01.066Z,44.59
2022-11-02T13:51:37.879Z,44.18
2022-11-02T13:54:13.019Z,43.60
2022-11-02T13:56:41.794Z,43.91
2022-11-02T13:59:11.375Z,43.84
2022-11-02T14:01:42.444Z,44.20
2022-11-02T14:04:12.793Z,44.34
2022-11-02T14:06:51.527Z,44.95
2022-11-02T14:09:28.224Z,44.53
2022-11-02T14:12:26.119Z,45.13
2022-11-02T14:15:27.269Z,45.58
2022-11-02T14:18:02.074Z,45.48
2022-11-02T14:20:33.743Z,45.59
2022-11-02T14:23:35.247Z,46.17
2022-11-02T14:26:04.075Z,45.63
2022-11-02T14:28:32.861Z,45.69
2022-11-02T14:31:29.400Z,46.00
2022-11-02T14:34:06.558Z,46.37
2022-11-02T14:36:49.077Z,46.45
2022-11-02T14:39:24.512Z,47.36
2022-11-02T14:42:09.181Z,47.16
2022-11-02T14:45:02.431Z,47.58
2022-11-02T14:47:32.908Z,47.79
2022-11-02T14:50:07.966Z,48.14
2022-11-02T14:52:36.317Z,48.32
2022-11-02T14:55:08.009Z,48.34
2022-11-02T14:57:39.785Z,48.47
2022-11-02T15:00:20.956Z,48.06
2022-11-02T15:02:49.534Z,47.90
2022-11-02T15:05:30.559Z,47.91
2022-11-02T15:08:02.154Z,47.93
2022-11-02T15:10:40.296Z,48.17
2022-11-02T15:13:35.766Z,47.85
2022-11-02T15:16:24.287Z,48.59
2022-11-02T15:18:52.256Z,48.19
2022-11-02T15:21:24.640Z,48.27
2022-11-02T15:23:58.314Z,48.11
2022-11-02T15:26:32.130Z,48.36
2022-11-02T15:29:03.916Z,48.58
2022-11-02T15:31:31.596Z,48.32
2022-11-02T15:34:00.982Z,48.72
2022-11-02T15:36:34.472Z,48.58
2022-11-02T15:39:04.462Z,48.13
2022-11-02T15:41:40.263Z,48.14
2022-11-02T15:44:21.340Z,48.89
2022-11-02T15:47:02.026Z,48.31
2022-11-02T15:49:43.356Z,48.86
2022-11-02T15:52:21.751Z,48.77
2022-11-02T15:55:03.386Z,48.66
2022-11-02T15:57:43.820Z,49.25
2022-11-02T16:00:17.828Z,49.25
2022-11-02T16:02:47.684Z,49.85
2022-11-02T16:05:22.690Z,50.62
2022-11-02T16:08:20.658Z,51.23
2022-11-02T16:10:38.584Z,51.43
2022-11-02T16:13:16.618Z,50.95
2022-11-02T16:15:46.737Z,51.58
2022-11-02T16:18:25.508Z,51.47
2022-11-02T16:20:56.163Z,51.93
2022-11-02T16:23:26.388Z,52.11
2022-11-02T16:25:56.735Z,52.13
2022-11-02T16:28:26.306Z,53.00
2022-11-02T16:31:19.220Z,52.56
2022-11-02T16:33:50.570Z,52.98
2022-11-02T16:36:20.663Z,51.76
2022-11-02T16:38:57.494Z,51.89
2022-11-02T16:41:27.138Z,51.48
2022-11-02T16:43:55.831Z,51.17
2022-11-02T16:46:31.905Z,50.71
2022-11-02T16:49:16.211Z,51.19
2022-11-02T16:51:50.203Z,51.21
2022-11-02T16:54:29.334Z,50.96
2022-11-02T16:57:00.480Z,51.32
2022-11-02T16:59:27.971Z,50.81
2022-11-02T17:02:01.617Z,50.79
2022-11-02T17:04:31.768Z,50.99
2022-11-02T17:07:09.736Z,51.18
2022-11-02T17:09:37.675Z,51.50
2022-11-02T17:12:10.033Z,51.04
2022-11-02T17:14:42.328Z,51.52
2022-11-02T17:17:31.990Z,51.78
2022-11-02T17:20:15.696Z,52.48
2022-11-02T17:22:54.919Z,52.44
2022-11-02T17:25:24.796Z,52.38
2022-11-02T17:27:53.856Z,52.89
2022-11-02T17:30:44.584Z,52.40
2022-11-02T17:33:23.629Z,52.65
2022-11-02T17:35:53.012Z,52.94
2022-11-02T17:38:23.777Z,53.04
2022-11-02T17:40:52.304Z,53.01
2022-11-02T17:43:19.140Z,53.04
2022-11-02T17:45:46.634Z,52.98
2022-11-02T17:48:15.458Z,52.62
2022-11-02T17:50:43.244Z,53.01
2022-11-02T17:53:13.414Z,52.67
2022-11-02T17:55:41.209Z,52.55
2022-11-02T17:58:09.089Z,53.57
2022-11-02T18:00:37.369Z,53.05
2022-11-02T18:03:06.274Z,53.02
2022-11-02T18:05:38.254Z,53.65
2022-11-02T18:08:10.247Z,52.33
2022-11-02T18:10:40.612Z,52.48
2022-11-02T18:13:08.493Z,53.36
2022-11-02T18:15:36.108Z,53.47
2022-11-02T18:18:03.969Z,53.45
2022-11-02T18:20:36.072Z,52.50
2022-11-02T18:23:08.581Z,51.99
2022-11-02T18:25:36.243Z,52.75
2022-11-02T18:28:04.066Z,53.19
2022-11-02T18:30:32.384Z,52.85
2022-11-02T18:33:01.520Z,53.09
2022-11-02T18:35:28.999Z,53.66
2022-11-02T18:37:56.543Z,52.40
2022-11-02T18:40:25.322Z,52.75
2022-11-02T18:42:52.827Z,53.70
2022-11-02T18:45:20.589Z,52.55
2022-11-02T18:47:48.110Z,52.97
2022-11-02T18:50:15.545Z,52.49
2022-11-02T18:52:48.734Z,52.97
2022-11-02T18:55:18.475Z,53.04
2022-11-02T18:57:50.323Z,52.93
2022-11-02T19:00:18.125Z,53.98
2022-11-02T19:02:45.597Z,53.52
2022-11-02T19:05:26.981Z,53.73
2022-11-02T19:08:11.814Z,53.36
2022-11-02T19:10:39.330Z,52.69
2022-11-02T19:13:08.485Z,53.64
2022-11-02T19:15:41.281Z,53.29
2022-11-02T19:18:09.956Z,52.87
2022-11-02T19:20:37.453Z,53.06
2022-11-02T19:23:05.093Z,53.19
2022-11-02T19:25:32.601Z,53.85
2022-11-02T19:28:00.233Z,53.11
2022-11-02T19:30:29.024Z,53.40
2022-11-02T19:32:58.223Z,54.14
2022-11-02T19:35:26.684Z,53.87
2022-11-02T19:37:57.422Z,53.88
2022-11-02T19:40:25.113Z,53.45
2022-11-02T19:42:52.600Z,53.60
2022-11-02T19:45:20.060Z,54.34
2022-11-02T19:47:50.036Z,54.57
2022-11-02T19:50:17.646Z,54.58
2022-11-02T19:52:46.221Z,54.31
2022-11-02T19:55:13.698Z,55.57
2022-11-02T19:57:41.186Z,55.63
2022-11-02T20:00:10.242Z,55.24
2022-11-02T20:02:37.725Z,55.42
2022-11-02T20:05:07.065Z,55.23
2022-11-02T20:07:34.516Z,55.87
2022-11-02T20:10:01.983Z,54.22
2022-11-02T20:12:29.503Z,55.23
2022-11-02T20:14:56.934Z,55.02
2022-11-02T20:17:31.820Z,55.44
2022-11-02T20:20:08.624Z,55.94
2022-11-02T20:22:38.055Z,56.25
2022-11-02T20:25:06.397Z,56.43
2022-11-02T20:27:36.996Z,55.81
2022-11-02T20:30:04.584Z,56.30
2022-11-02T20:32:32.097Z,56.24
2022-11-02T20:34:59.566Z,56.18
2022-11-02T20:37:28.394Z,56.75
2022-11-02T20:39:55.822Z,56.51
2022-11-02T20:42:24.597Z,56.52
2022-11-02T20:44:52.087Z,56.12
2022-11-02T20:47:19.519Z,56.42
2022-11-02T20:49:51.169Z,56.98
2022-11-02T20:52:21.761Z,55.68
2022-11-02T20:54:50.573Z,56.30
2022-11-02T20:57:18.280Z,55.83
2022-11-02T20:59:45.773Z,56.60
2022-11-02T21:02:13.322Z,55.88
2022-11-02T21:04:40.899Z,56.59
2022-11-02T21:07:08.342Z,56.01
2022-11-02T21:09:35.932Z,56.19
2022-11-02T21:12:23.068Z,56.94
2022-11-02T21:14:50.532Z,57.63
2022-11-02T21:17:17.983Z,57.38
2022-11-02T21:19:46.367Z,56.82
2022-11-02T21:22:13.911Z,56.76
2022-11-02T21:24:41.377Z,56.85
2022-11-02T21:27:10.218Z,57.00
2022-11-02T21:29:37.681Z,57.06
2022-11-02T21:32:05.486Z,56.87
2022-11-02T21:34:32.954Z,56.84
2022-11-02T21:37:02.958Z,56.96
2022-11-02T21:39:30.416Z,56.42
2022-11-02T21:41:57.893Z,57.21
2022-11-02T21:44:27.226Z,57.31
2022-11-02T21:46:54.667Z,57.48
2022-11-02T21:49:22.247Z,56.49
2022-11-02T21:51:49.729Z,57.19
2022-11-02T21:54:17.185Z,57.43
2022-11-02T21:56:46.199Z,57.93
2022-11-02T21:59:13.703Z,58.05
2022-11-02T22:01:44.964Z,57.25
2022-11-02T22:04:14.487Z,57.79
2022-11-02T22:06:42.462Z,58.48
2022-11-02T22:09:12.711Z,58.54
2022-11-02T22:11:40.579Z,57.78
2022-11-02T22:14:08.166Z,57.54
2022-11-02T22:16:37.526Z,58.55
2022-11-02T22:19:08.027Z,58.17
2022-11-02T22:21:37.865Z,59.03
2022-11-02T22:24:06.159Z,58.24
2022-11-02T22:26:36.031Z,58.74
2022-11-02T22:29:03.958Z,58.78
2022-11-02T22:31:32.856Z,58.30
2022-11-02T22:34:03.284Z,58.40
2022-11-02T22:36:34.078Z,58.00
2022-11-02T22:39:02.249Z,58.46
2022-11-02T22:41:31.227Z,57.84
2022-11-02T22:44:01.301Z,58.56
2022-11-02T22:46:30.430Z,58.96
2022-11-02T22:48:59.678Z,58.68
2022-11-02T22:51:28.752Z,57.92
2022-11-02T22:54:00.851Z,58.45
2022-11-02T22:56:28.979Z,58.68
2022-11-02T22:58:56.866Z,58.51
2022-11-02T23:01:25.956Z,58.95
2022-11-02T23:03:54.025Z,58.92
2022-11-02T23:06:22.451Z,58.91
2022-11-02T23:08:51.685Z,58.63
2022-11-02T23:11:21.755Z,58.26
2022-11-02T23:13:51.697Z,58.91
2022-11-02T23:16:23.745Z,58.87
2022-11-02T23:19:10.918Z,59.78
2022-11-02T23:21:39.667Z,59.36
2022-11-02T23:24:25.526Z,58.92
2022-11-02T23:26:55.096Z,59.45
2022-11-02T23:29:40.350Z,58.69
2022-11-02T23:32:30.986Z,58.48
2022-11-02T23:35:17.355Z,58.67
2022-11-02T23:37:46.667Z,59.43
2022-11-02T23:40:16.334Z,59.39
2022-11-02T23:42:45.119Z,59.33
2022-11-02T23:45:12.775Z,59.50
2022-11-02T23:48:06.208Z,59.16
2022-11-02T23:50:51.951Z,59.84
2022-11-02T23:53:37.630Z,60.22
2022-11-02T23:56:25.019Z,60.24
2022-11-02T23:59:06.447Z,59.61
